Time;durP1;ratioP1;P1;durP2;ratioP2;P2;SDS_P1;SDS_P2;PMS_P1;PMS_P2;Temp;Humidity;BMP_temperature;BMP_pressure;BME280_temperature;BME280_humidity;BME280_pressure;Samples;Min_cycle;Max_cycle;Signal;HPM_P1;HPM_P2
2023/04/01 04:22:33;;;;;;;9.60;1.33;;;;;;;9.68;87.05;98801.56;5089720;28;20328;-61
2023/04/01 04:25:01;;;;;;;2.97;1.23;;;;;;;9.72;87.25;98802.00;5105245;28;20054;-62
2023/04/01 04:27:28;;;;;;;4.22;0.60;;;;;;;9.76;86.44;98805.88;5087932;28;20028;-60
2023/04/01 04:30:03;;;;;;;4.15;0.60;;;;;;;9.81;86.47;98798.13;5088095;28;20093;-60
2023/04/01 04:32:30;;;;;;;0.95;0.70;;;;;;;9.81;86.11;98794.63;5088111;28;20029;-61
2023/04/01 04:34:55;;;;;;;1.17;0.68;;;;;;;9.85;85.90;98799.34;5087951;28;20412;-61
2023/04/01 04:37:21;;;;;;;3.15;0.68;;;;;;;9.84;86.08;98792.38;5088877;28;20123;-62
2023/04/01 04:39:46;;;;;;;2.63;0.77;;;;;;;9.84;85.40;98795.03;5087986;28;20040;-61
2023/04/01 04:42:11;;;;;;;1.15;0.77;;;;;;;9.94;86.08;98802.63;5087759;28;20443;-61
2023/04/01 04:44:37;;;;;;;1.95;0.63;;;;;;;9.91;85.75;98782.59;5087915;28;20032;-62
2023/04/01 04:47:02;;;;;;;3.97;0.82;;;;;;;9.95;85.31;98801.59;5087530;28;20130;-62
2023/04/01 04:49:28;;;;;;;4.63;1.60;;;;;;;9.92;84.83;98786.88;5087549;28;20037;-61
2023/04/01 04:51:53;;;;;;;5.88;1.05;;;;;;;9.96;84.98;98790.75;5089004;28;20464;-61
2023/04/01 04:54:22;;;;;;;1.98;1.30;;;;;;;9.98;85.08;98782.59;5087749;28;20400;-62
2023/04/01 04:56:54;;;;;;;2.05;0.73;;;;;;;9.94;84.53;98781.34;5087325;28;20033;-61
2023/04/01 04:59:20;;;;;;;2.42;0.75;;;;;;;9.95;84.31;98785.63;5087454;28;20055;-62
2023/04/01 05:01:57;;;;;;;2.25;0.68;;;;;;;9.92;85.29;98778.09;5087512;28;20039;-60
2023/04/01 05:04:22;;;;;;;0.65;0.60;;;;;;;9.87;85.61;98770.72;5087386;28;20134;-61
2023/04/01 05:06:47;;;;;;;1.27;0.60;;;;;;;9.89;84.97;98767.84;5087306;28;20035;-62
2023/04/01 05:09:14;;;;;;;0.60;0.55;;;;;;;9.88;85.19;98785.63;5087196;28;20043;-61
2023/04/01 05:11:40;;;;;;;5.90;0.85;;;;;;;9.90;84.53;98764.97;5087353;28;20038;-62
2023/04/01 05:14:06;;;;;;;0.80;0.45;;;;;;;9.90;83.83;98786.25;5087313;28;20497;-62
2023/04/01 05:16:35;;;;;;;1.13;0.50;;;;;;;9.92;83.36;98770.91;5087123;28;20109;-60
2023/04/01 05:19:00;;;;;;;0.85;0.47;;;;;;;9.86;83.88;98771.75;5086939;28;20451;-62
2023/04/01 05:21:26;;;;;;;0.45;0.40;;;;;;;9.86;84.69;98768.25;5088245;28;20043;-62
2023/04/01 05:23:53;;;;;;;0.53;0.30;;;;;;;9.83;84.58;98773.97;5087102;28;20412;-62
2023/04/01 05:26:19;;;;;;;0.85;0.43;;;;;;;9.80;83.91;98775.22;5086913;28;20037;-60
2023/04/01 05:28:44;;;;;;;2.67;0.50;;;;;;;9.77;84.73;98778.25;5069858;28;20043;-60
2023/04/01 05:31:10;;;;;;;0.65;0.65;;;;;;;9.75;85.57;98773.16;5086861;28;20653;-62
2023/04/01 05:33:42;;;;;;;0.52;0.28;;;;;;;9.68;85.74;98774.16;5074774;28;20036;-61
2023/04/01 05:36:12;;;;;;;0.30;0.30;;;;;;;9.62;88.50;98777.63;5073362;28;20037;-61
2023/04/01 05:38:38;;;;;;;0.40;0.40;;;;;;;9.50;88.76;98767.59;5072973;28;20028;-63
2023/04/01 05:41:05;;;;;;;;;;;;;;;9.49;90.95;98767.81;5073558;28;20063;-62
2023/04/01 05:43:38;;;;;;;0.13;0.13;;;;;;;9.35;91.63;98788.22;5073263;28;19917;-62
2023/04/01 05:46:24;;;;;;;0.20;0.20;;;;;;;9.32;94.08;98777.16;5074294;28;20131;-63
2023/04/01 05:48:55;;;;;;;1.38;0.32;;;;;;;9.24;95.30;98778.16;5074163;28;20044;-62
2023/04/01 05:51:22;;;;;;;1.92;0.60;;;;;;;9.12;96.72;98780.56;5073112;28;20123;-62
2023/04/01 05:53:48;;;;;;;2.42;0.73;;;;;;;9.10;97.96;98789.78;5073175;28;20119;-60
2023/04/01 05:56:14;;;;;;;2.47;0.65;;;;;;;8.96;99.33;98775.63;5072897;28;20041;-62
2023/04/01 05:58:50;;;;;;;0.77;0.55;;;;;;;8.92;100.00;98785.00;5072772;28;20038;-60
2023/04/01 06:01:15;;;;;;;3.72;0.70;;;;;;;8.83;100.00;98779.03;5072521;28;20045;-61
2023/04/01 06:03:42;;;;;;;0.85;0.30;;;;;;;8.78;100.00;98775.34;5073004;28;20036;-60
2023/04/01 06:06:23;;;;;;;1.05;0.75;;;;;;;8.67;100.00;98779.34;5072752;28;20417;-62
2023/04/01 06:08:49;;;;;;;0.65;0.55;;;;;;;8.64;100.00;98779.75;5056123;28;20489;-62
2023/04/01 06:11:40;;;;;;;2.85;0.43;;;;;;;8.57;100.00;98774.41;5072968;28;20046;-63
2023/04/01 06:14:05;;;;;;;0.20;0.20;;;;;;;8.58;100.00;98777.88;5074113;28;20075;-61
2023/04/01 06:17:00;;;;;;;1.27;0.60;;;;;;;8.60;100.00;98766.03;5072617;28;20085;-62
2023/04/01 06:19:35;;;;;;;2.10;0.50;;;;;;;8.56;100.00;98785.25;5072717;28;20033;-62
2023/04/01 06:22:14;;;;;;;0.98;0.57;;;;;;;8.59;100.00;98779.53;5072516;28;20075;-63
2023/04/01 06:24:58;;;;;;;2.53;1.00;;;;;;;8.55;100.00;98787.06;5072676;28;20499;-64
2023/04/01 06:27:41;;;;;;;1.27;0.60;;;;;;;8.63;100.00;98784.25;5072247;28;20033;-62
2023/04/01 06:30:25;;;;;;;3.92;0.68;;;;;;;8.64;100.00;98790.38;5072430;28;20032;-64
2023/04/01 06:33:12;;;;;;;1.27;0.70;;;;;;;8.73;100.00;98791.03;5072468;28;20039;-63
2023/04/01 06:35:45;;;;;;;1.13;0.75;;;;;;;8.77;100.00;98798.41;5072316;28;20060;-64
2023/04/01 06:38:30;;;;;;;2.10;0.82;;;;;;;8.84;100.00;98807.22;5071968;28;20115;-63
2023/04/01 06:41:21;;;;;;;0.93;0.80;;;;;;;8.82;100.00;98805.78;5072218;28;20036;-64
2023/04/01 06:44:14;;;;;;;2.72;0.63;;;;;;;8.82;100.00;98814.59;5070989;28;20412;-63
2023/04/01 06:47:04;;;;;;;1.40;0.60;;;;;;;8.91;100.00;98802.75;5073087;28;20093;-62
2023/04/01 06:49:55;;;;;;;0.43;0.35;;;;;;;8.85;100.00;98806.22;5073170;28;20101;-62
2023/04/01 06:52:56;;;;;;;1.75;0.65;;;;;;;8.88;100.00;98797.03;5073305;28;20458;-64
2023/04/01 06:55:52;;;;;;;1.10;0.77;;;;;;;8.95;100.00;98796.06;5073382;28;20102;-63
2023/04/01 06:58:48;;;;;;;4.30;0.70;;;;;;;9.06;100.00;98799.16;5053077;28;20457;-63
2023/04/01 07:01:20;;;;;;;0.88;0.43;;;;;;;9.11;100.00;98800.19;5071690;28;20067;-64
2023/04/01 07:03:55;;;;;;;2.42;0.57;;;;;;;9.14;100.00;98789.19;5073135;28;20036;-61
2023/04/01 07:06:32;;;;;;;1.35;0.50;;;;;;;9.13;100.00;98789.38;5071948;28;20055;-63
2023/04/01 07:09:04;;;;;;;1.85;0.60;;;;;;;9.15;100.00;98803.28;5071417;28;20037;-63
2023/04/01 07:11:51;;;;;;;1.88;0.50;;;;;;;9.20;100.00;98787.56;5072694;28;20112;-64
2023/04/01 07:14:38;;;;;;;3.50;0.80;;;;;;;9.15;100.00;98796.13;5072782;28;20082;-63
2023/04/01 07:17:20;;;;;;;1.05;0.65;;;;;;;9.16;100.00;98802.25;5071155;28;20032;-63
2023/04/01 07:19:57;;;;;;;3.90;0.80;;;;;;;9.13;100.00;98802.66;5071525;28;20033;-64
2023/04/01 07:22:45;;;;;;;0.88;0.77;;;;;;;9.17;100.00;98806.56;5071183;28;20473;-64
2023/04/01 07:25:58;;;;;;;2.80;0.70;;;;;;;8.99;100.00;98799.13;5064161;28;20067;-64
2023/04/01 07:28:41;;;;;;;2.15;0.52;;;;;;;8.97;100.00;98806.47;5072244;28;20102;-66
2023/04/01 07:31:42;;;;;;;0.88;0.50;;;;;;;8.89;100.00;98802.16;5072336;28;20047;-65
2023/04/01 07:34:19;;;;;;;2.85;0.57;;;;;;;8.89;100.00;98826.06;5071125;28;20519;-64
2023/04/01 07:36:52;;;;;;;0.50;0.47;;;;;;;8.88;100.00;98819.09;5070979;28;20036;-65
2023/04/01 07:39:26;;;;;;;2.35;0.50;;;;;;;8.84;100.00;98833.78;5072197;28;20036;-64
2023/04/01 07:42:25;;;;;;;1.35;0.77;;;;;;;8.81;100.00;98833.38;5070918;28;20064;-65
2023/04/01 07:45:05;;;;;;;6.07;0.75;;;;;;;8.76;100.00;98831.28;5042859;28;20542;-65
2023/04/01 07:47:43;;;;;;;3.75;0.60;;;;;;;8.66;100.00;98823.66;5070552;28;20032;-66
2023/04/01 07:50:33;;;;;;;2.05;1.05;;;;;;;8.52;100.00;98810.50;5070902;28;20115;-66
2023/04/01 07:53:23;;;;;;;1.77;0.82;;;;;;;8.46;100.00;98809.47;5070876;28;20039;-65
2023/04/01 07:56:01;;;;;;;3.13;0.70;;;;;;;8.39;100.00;98805.94;5070551;28;20039;-66
2023/04/01 07:58:30;;;;;;;1.45;0.65;;;;;;;8.47;100.00;98818.22;5070302;28;20035;-65
2023/04/01 08:01:01;;;;;;;2.38;0.80;;;;;;;8.45;100.00;98809.66;5070703;28;20087;-65
2023/04/01 08:03:45;;;;;;;4.03;1.10;;;;;;;8.47;100.00;98813.75;5070878;28;20036;-65
2023/04/01 08:06:22;;;;;;;1.50;0.90;;;;;;;8.54;100.00;98822.59;5071893;28;20048;-66
2023/04/01 08:08:54;;;;;;;;;;;;;;;8.61;100.00;98817.31;5070898;28;20649;-65
2023/04/01 08:11:54;;;;;;;1.15;1.00;;;;;;;8.60;100.00;98816.47;5072099;28;20001;-66
2023/04/01 08:14:47;;;;;;;2.30;1.10;;;;;;;8.66;100.00;98834.28;5072069;28;20405;-64
2023/04/01 08:17:55;;;;;;;0.70;0.52;;;;;;;8.78;100.00;98829.25;5071472;28;20098;-65
2023/04/01 08:20:42;;;;;;;1.92;0.90;;;;;;;8.93;100.00;98829.13;5070629;28;20078;-65
2023/04/01 08:23:30;;;;;;;5.60;0.90;;;;;;;9.11;100.00;98825.94;5071828;28;20039;-64
2023/04/01 08:26:01;;;;;;;3.45;0.95;;;;;;;9.19;100.00;98837.22;5070553;28;20032;-65
2023/04/01 08:28:37;;;;;;;4.22;0.82;;;;;;;9.23;100.00;98833.16;5070310;28;20055;-64
2023/04/01 08:31:12;;;;;;;1.73;0.70;;;;;;;9.30;100.00;98843.78;5070639;28;20086;-65
2023/04/01 08:33:44;;;;;;;5.95;0.80;;;;;;;9.30;100.00;98833.16;5070438;28;20032;-65
2023/04/01 08:36:21;;;;;;;0.85;0.57;;;;;;;9.41;100.00;98845.88;5070393;28;20051;-65
2023/04/01 08:39:16;;;;;;;3.50;0.73;;;;;;;9.54;100.00;98838.97;5070242;28;20453;-64
2023/04/01 08:42:05;;;;;;;2.92;0.82;;;;;;;9.65;100.00;98843.69;5069694;28;20033;-65
2023/04/01 08:45:12;;;;;;;0.82;0.82;;;;;;;9.66;100.00;98846.16;5070374;28;20147;-64
2023/04/01 08:47:46;;;;;;;3.88;0.70;;;;;;;9.61;100.00;98835.31;5069334;28;20500;-65
2023/04/01 08:50:47;;;;;;;2.88;1.00;;;;;;;9.51;100.00;98856.13;5069984;28;20033;-65
2023/04/01 08:53:53;;;;;;;0.68;0.68;;;;;;;9.50;100.00;98841.19;5069671;28;20066;-65
2023/04/01 08:56:26;;;;;;;1.58;0.80;;;;;;;9.42;100.00;98836.06;5070110;28;20055;-66
2023/04/01 08:59:11;;;;;;;3.42;1.13;;;;;;;9.35;100.00;98837.91;5069348;28;20099;-64
2023/04/01 09:02:00;;;;;;;4.45;0.88;;;;;;;9.35;100.00;98851.19;5074554;28;20032;-65
2023/04/01 09:04:59;;;;;;;1.25;0.65;;;;;;;9.29;100.00;98854.63;5070141;28;20097;-65
2023/04/01 09:07:25;;;;;;;4.93;0.85;;;;;;;9.31;100.00;98842.78;5069667;28;20051;-65
2023/04/01 09:10:23;;;;;;;5.03;0.98;;;;;;;9.39;100.00;98855.06;5090725;28;20040;-65
2023/04/01 09:12:59;;;;;;;1.23;0.85;;;;;;;9.32;100.00;98847.06;5083933;28;20090;-66
2023/04/01 09:15:30;;;;;;;1.15;0.57;;;;;;;9.29;100.00;98850.13;5080453;28;20093;-64
2023/04/01 09:18:18;;;;;;;0.85;0.60;;;;;;;9.29;100.00;98852.78;5089856;28;20028;-65
2023/04/01 09:20:53;;;;;;;0.38;0.38;;;;;;;9.30;100.00;98870.38;5072737;28;20111;-65
2023/04/01 09:23:29;;;;;;;1.35;1.00;;;;;;;9.31;100.00;98866.69;5081218;28;20052;-65
2023/04/01 09:26:07;;;;;;;1.77;0.73;;;;;;;9.35;100.00;98856.50;5077383;28;20042;-63
2023/04/01 09:29:01;;;;;;;1.02;0.88;;;;;;;9.39;100.00;98863.88;5085624;28;20033;-65
2023/04/01 09:32:10;;;;;;;0.70;0.40;;;;;;;9.44;100.00;98857.94;5088771;28;20028;-63
2023/04/01 09:35:11;;;;;;;5.30;0.73;;;;;;;9.26;100.00;98869.16;5072358;28;20035;-65
2023/04/01 09:37:55;;;;;;;0.68;0.50;;;;;;;9.40;100.00;98854.88;5070986;28;20044;-65
2023/04/01 09:40:42;;;;;;;1.35;0.90;;;;;;;9.41;100.00;98869.81;5067127;28;20516;-65
2023/04/01 09:43:48;;;;;;;1.60;0.55;;;;;;;9.42;100.00;98868.78;5086009;28;20397;-61
2023/04/01 09:46:35;;;;;;;1.17;0.50;;;;;;;9.41;100.00;98869.00;5070077;28;20032;-65
2023/04/01 09:49:22;;;;;;;0.68;0.60;;;;;;;9.40;100.00;98870.84;5061922;28;20044;-65
2023/04/01 09:52:05;;;;;;;0.75;0.60;;;;;;;9.41;100.00;98872.47;5081640;28;20036;-65
2023/04/01 09:54:54;;;;;;;0.45;0.43;;;;;;;9.41;100.00;98869.00;5073109;28;20033;-65
2023/04/01 09:57:45;;;;;;;0.85;0.70;;;;;;;9.47;100.00;98869.00;5072604;28;20393;-65
2023/04/01 10:00:41;;;;;;;0.47;0.45;;;;;;;9.42;100.00;98867.97;5072763;28;20425;-65
2023/04/01 10:03:13;;;;;;;1.27;0.60;;;;;;;9.48;100.00;98873.31;5072902;28;20497;-65
2023/04/01 10:06:02;;;;;;;1.90;0.50;;;;;;;9.54;100.00;98866.38;5072796;28;20036;-65
2023/04/01 10:09:22;;;;;;;1.17;0.50;;;;;;;9.58;100.00;98878.22;5072623;28;20036;-67
2023/04/01 10:12:16;;;;;;;2.05;0.40;;;;;;;9.55;100.00;98883.16;5011924;28;20117;-64
2023/04/01 10:15:13;;;;;;;0.50;0.50;;;;;;;9.66;100.00;98879.91;5071495;28;20536;-65
2023/04/01 10:17:39;;;;;;;0.65;0.40;;;;;;;9.62;100.00;98878.66;5072244;28;20405;-64
2023/04/01 10:20:19;;;;;;;2.50;0.68;;;;;;;9.66;100.00;98893.22;5072519;28;20037;-65
2023/04/01 10:23:10;;;;;;;4.15;0.73;;;;;;;9.70;100.00;98881.13;5072500;28;20094;-63
2023/04/01 10:26:01;;;;;;;1.30;0.65;;;;;;;9.67;100.00;98879.72;5073722;28;20040;-64
2023/04/01 10:28:40;;;;;;;1.55;0.68;;;;;;;9.68;100.00;98883.19;5072140;28;20038;-64
2023/04/01 10:31:43;;;;;;;1.63;1.00;;;;;;;9.58;100.00;98890.72;5073941;28;20044;-65
2023/04/01 10:34:54;;;;;;;1.75;0.57;;;;;;;9.54;100.00;98890.31;5072462;28;20117;-65
2023/04/01 10:37:32;;;;;;;2.15;0.82;;;;;;;9.51;100.00;98886.19;5073280;28;20540;-64
2023/04/01 10:40:25;;;;;;;1.08;0.95;;;;;;;9.45;100.00;98892.31;5072356;28;20033;-64
2023/04/01 10:43:34;;;;;;;2.97;1.20;;;;;;;9.46;100.00;98883.31;5073545;28;20113;-65
2023/04/01 10:46:13;;;;;;;6.80;1.40;;;;;;;9.42;100.00;98897.19;5071932;28;20036;-65
2023/04/01 10:49:10;;;;;;;3.88;1.08;;;;;;;9.47;100.00;98890.28;5071745;28;20032;-65
2023/04/01 10:52:10;;;;;;;1.23;0.52;;;;;;;9.53;100.00;98886.00;5071958;28;20028;-65
2023/04/01 10:55:14;;;;;;;1.42;0.63;;;;;;;9.58;100.00;98896.03;5072733;28;20136;-65
2023/04/01 10:58:22;;;;;;;1.73;0.82;;;;;;;9.65;100.00;98894.19;5072859;28;20051;-65
2023/04/01 11:01:54;;;;;;;1.02;0.65;;;;;;;9.73;100.00;98902.03;5071748;28;20059;-65
2023/04/01 11:05:06;;;;;;;1.27;0.77;;;;;;;9.66;100.00;98906.50;5073275;28;20047;-66
2023/04/01 11:08:22;;;;;;;1.15;0.63;;;;;;;9.62;100.00;98908.72;5069451;28;20040;-66
2023/04/01 11:11:30;;;;;;;0.90;0.55;;;;;;;9.65;100.00;98921.63;5071684;28;20397;-66
2023/04/01 11:14:15;;;;;;;2.03;0.90;;;;;;;9.59;100.00;98905.66;5072823;28;20040;-65
2023/04/01 11:17:16;;;;;;;0.85;0.60;;;;;;;9.61;100.00;98903.63;5072756;28;20036;-66
2023/04/01 11:19:55;;;;;;;1.65;0.80;;;;;;;9.55;100.00;98915.88;5071570;28;20448;-66
2023/04/01 11:22:56;;;;;;;2.65;0.90;;;;;;;9.45;100.00;98912.75;5070931;28;20044;-66
2023/04/01 11:25:49;;;;;;;1.63;0.80;;;;;;;9.49;100.00;98919.31;5071309;28;20123;-66
2023/04/01 11:28:51;;;;;;;2.00;0.80;;;;;;;9.57;100.00;98920.97;5072386;28;20056;-66
2023/04/01 11:31:54;;;;;;;3.80;1.52;;;;;;;9.48;100.00;98918.50;5072092;28;20032;-66
2023/04/01 11:34:53;;;;;;;1.63;0.80;;;;;;;9.48;100.00;98917.69;5070892;28;20138;-66
2023/04/01 11:37:54;;;;;;;0.65;0.65;;;;;;;9.47;100.00;98937.31;5068581;28;20032;-66
2023/04/01 11:41:13;;;;;;;1.00;0.90;;;;;;;9.46;100.00;98933.00;5072438;28;20051;-66
2023/04/01 11:44:18;;;;;;;3.22;1.27;;;;;;;9.39;100.00;98927.66;5072200;28;20086;-65
2023/04/01 11:47:21;;;;;;;0.98;0.77;;;;;;;9.48;100.00;98934.44;5070362;28;20452;-65
2023/04/01 11:50:06;;;;;;;2.13;0.70;;;;;;;9.43;100.00;98936.88;5070845;28;20043;-66
2023/04/01 11:53:28;;;;;;;0.85;0.80;;;;;;;9.50;100.00;98945.69;5070838;28;20544;-67
2023/04/01 11:56:07;;;;;;;2.22;0.90;;;;;;;9.52;100.00;98929.56;5034750;28;20050;-66
2023/04/01 11:59:01;;;;;;;1.00;0.75;;;;;;;9.58;100.00;98944.69;5071222;28;20036;-66
2023/04/01 12:01:58;;;;;;;1.15;0.77;;;;;;;9.59;100.00;98940.22;5072048;28;20037;-66
2023/04/01 12:04:56;;;;;;;0.63;0.63;;;;;;;9.59;100.00;98942.88;5072368;28;20040;-66
2023/04/01 12:07:37;;;;;;;5.10;0.80;;;;;;;9.58;100.00;98946.53;5051228;28;20056;-66
2023/04/01 12:10:28;;;;;;;2.17;0.60;;;;;;;9.56;100.00;98957.38;5051936;28;20041;-66
2023/04/01 12:13:14;;;;;;;3.05;0.75;;;;;;;9.56;100.00;98952.06;5051989;28;20033;-67
2023/04/01 12:15:58;;;;;;;0.77;0.60;;;;;;;9.51;100.00;98952.63;5051734;28;20470;-66
2023/04/01 12:18:38;;;;;;;1.63;0.70;;;;;;;9.49;100.00;98953.88;5049799;28;20044;-66
2023/04/01 12:21:32;;;;;;;2.30;1.05;;;;;;;9.36;100.00;98967.91;5051628;28;20040;-66
2023/04/01 12:24:25;;;;;;;5.72;1.10;;;;;;;9.40;100.00;98958.53;5054071;28;20543;-66
2023/04/01 12:27:24;;;;;;;7.63;0.88;;;;;;;9.39;100.00;98964.88;5051125;28;20040;-65
2023/04/01 12:30:08;;;;;;;2.20;1.00;;;;;;;9.35;100.00;98963.63;5051647;28;20052;-66
2023/04/01 12:32:44;;;;;;;1.52;0.80;;;;;;;9.39;100.00;98972.84;5051575;28;20127;-66
2023/04/01 12:35:19;;;;;;;3.25;1.00;;;;;;;9.37;100.00;98968.72;5051447;28;20040;-66
2023/04/01 12:37:55;;;;;;;0.63;0.63;;;;;;;9.35;100.00;98971.59;5050977;28;20480;-66
2023/04/01 12:40:30;;;;;;;1.05;0.65;;;;;;;9.43;100.00;98971.41;5051918;28;20112;-66
2023/04/01 12:43:08;;;;;;;1.58;0.65;;;;;;;9.39;100.00;98977.31;5053153;28;20044;-65
2023/04/01 12:46:03;;;;;;;2.05;1.15;;;;;;;9.33;100.00;98976.28;5055688;28;20155;-66
2023/04/01 12:48:59;;;;;;;0.68;0.50;;;;;;;9.24;100.00;98977.44;5054820;28;20041;-66
2023/04/01 12:51:40;;;;;;;1.65;0.68;;;;;;;9.27;100.00;98981.56;5055546;28;20040;-65
2023/04/01 12:54:18;;;;;;;0.60;0.50;;;;;;;9.20;100.00;98981.53;5055405;28;20456;-65
2023/04/01 12:57:08;;;;;;;2.35;0.70;;;;;;;9.19;100.00;98979.84;5055170;28;20037;-65
2023/04/01 13:00:11;;;;;;;1.20;0.40;;;;;;;9.15;100.00;98974.13;5055507;28;20036;-65
2023/04/01 13:02:54;;;;;;;1.23;0.43;;;;;;;9.18;100.00;98988.84;5055283;28;20460;-66
2023/04/01 13:05:56;;;;;;;2.25;0.80;;;;;;;9.22;100.00;98984.78;5055158;28;20063;-66
2023/04/01 13:08:32;;;;;;;1.55;0.60;;;;;;;9.23;100.00;98989.09;5057899;28;20036;-66
2023/04/01 13:11:23;;;;;;;0.77;0.60;;;;;;;9.21;100.00;98999.09;5075127;28;20024;-66
2023/04/01 13:14:06;;;;;;;0.55;0.52;;;;;;;9.24;100.00;98998.69;5070060;28;20055;-67
2023/04/01 13:16:44;;;;;;;3.17;1.63;;;;;;;9.24;100.00;98996.03;5068333;28;20044;-66
2023/04/01 13:19:36;;;;;;;1.92;0.98;;;;;;;9.23;100.00;99002.38;5071918;28;20032;-66
2023/04/01 13:22:37;;;;;;;1.02;0.52;;;;;;;9.32;100.00;98993.22;5070547;28;20033;-66
2023/04/01 13:25:36;;;;;;;0.40;0.40;;;;;;;9.39;100.00;98999.44;5073320;28;20028;-66
2023/04/01 13:28:13;;;;;;;0.98;0.47;;;;;;;9.38;100.00;98999.59;5044548;28;20415;-66
2023/04/01 13:30:46;;;;;;;;;;;;;;;9.37;100.00;99003.28;5070548;28;20048;-66
2023/04/01 13:33:29;;;;;;;2.40;0.90;;;;;;;9.34;100.00;99001.03;5074680;28;19913;-66
2023/04/01 13:36:07;;;;;;;1.73;0.50;;;;;;;9.22;100.00;99011.38;5069176;28;20040;-66
2023/04/01 13:38:38;;;;;;;1.85;0.70;;;;;;;9.20;100.00;99003.59;5066433;28;20079;-66
2023/04/01 13:41:29;;;;;;;1.10;0.77;;;;;;;9.16;100.00;99006.81;5063924;28;20474;-66
2023/04/01 13:44:03;;;;;;;0.93;0.40;;;;;;;9.15;100.00;99006.00;5063973;28;20451;-66
2023/04/01 13:47:06;;;;;;;4.07;1.20;;;;;;;9.14;100.00;98998.25;5063808;28;20048;-66
2023/04/01 13:49:39;;;;;;;6.03;0.98;;;;;;;9.12;100.00;99016.19;5064047;28;20041;-66
2023/04/01 13:52:35;;;;;;;2.50;0.82;;;;;;;9.04;100.00;99011.84;5063651;28;20474;-66
2023/04/01 13:55:26;;;;;;;1.33;0.82;;;;;;;9.12;100.00;99013.53;5065562;28;20585;-66
2023/04/01 13:58:12;;;;;;;0.90;0.65;;;;;;;9.15;100.00;99007.84;5074165;28;20112;-66
2023/04/01 14:00:54;;;;;;;1.80;0.73;;;;;;;9.24;100.00;99010.16;5074127;28;20029;-67
2023/04/01 14:03:41;;;;;;;1.10;0.60;;;;;;;9.32;100.00;99018.97;5074532;28;20645;-66
2023/04/01 14:06:14;;;;;;;3.33;0.83;;;;;;;9.29;100.00;99016.72;5074100;28;20473;-67
2023/04/01 14:09:10;;;;;;;1.83;0.70;;;;;;;9.31;100.00;99022.66;5073917;28;20282;-66
2023/04/01 14:12:13;;;;;;;3.10;0.95;;;;;;;9.25;100.00;99019.75;5074092;28;20470;-66
2023/04/01 14:15:04;;;;;;;0.77;0.60;;;;;;;9.20;100.00;99016.06;5072946;28;20397;-67
2023/04/01 14:17:57;;;;;;;2.58;0.60;;;;;;;9.16;100.00;99012.13;5073571;28;20036;-66
2023/04/01 14:20:51;;;;;;;1.13;0.80;;;;;;;9.17;100.00;99021.75;5073296;28;20055;-67
2023/04/01 14:23:39;;;;;;;0.75;0.70;;;;;;;9.18;100.00;99023.38;5073638;28;20127;-67
2023/04/01 14:26:25;;;;;;;0.55;0.45;;;;;;;9.23;100.00;99013.81;5073932;28;20032;-66
2023/04/01 14:29:05;;;;;;;0.98;0.60;;;;;;;9.22;100.00;99022.00;5073513;28;20032;-66
2023/04/01 14:31:48;;;;;;;0.80;0.80;;;;;;;9.30;100.00;99016.53;5073858;28;20037;-65
2023/04/01 14:34:58;;;;;;;1.80;0.85;;;;;;;9.30;100.00;99018.34;5072650;28;20457;-66
2023/04/01 14:37:41;;;;;;;1.85;0.80;;;;;;;9.30;100.00;99019.19;5052455;28;20040;-66
2023/04/01 14:40:40;;;;;;;3.17;1.00;;;;;;;9.35;100.00;99018.59;5073546;28;20379;-66
2023/04/01 14:43:33;;;;;;;2.45;0.70;;;;;;;9.37;100.00;99028.00;5073458;28;20041;-66
2023/04/01 14:46:05;;;;;;;2.35;1.60;;;;;;;9.35;100.00;99030.06;5073378;28;20024;-66
2023/04/01 14:48:37;;;;;;;2.67;1.20;;;;;;;9.33;100.00;99015.34;5072985;28;20071;-66
2023/04/01 14:51:08;;;;;;;2.35;0.77;;;;;;;9.47;100.00;99025.84;5073470;28;20042;-66
2023/04/01 14:53:38;;;;;;;5.22;0.82;;;;;;;9.47;100.00;99025.03;5072856;28;20075;-66
2023/04/01 14:56:05;;;;;;;1.55;0.98;;;;;;;9.54;100.00;99019.75;5073022;28;20194;-66
2023/04/01 14:58:50;;;;;;;2.20;1.13;;;;;;;9.59;100.00;99022.63;5072773;28;20478;-66
2023/04/01 15:01:21;;;;;;;6.32;1.13;;;;;;;9.62;100.00;99020.41;5072950;28;20043;-66
2023/04/01 15:04:16;;;;;;;4.00;1.70;;;;;;;9.69;100.00;99023.09;5071654;28;20127;-66
2023/04/01 15:07:00;;;;;;;2.65;1.27;;;;;;;9.65;100.00;99020.03;5060824;28;20049;-67
2023/04/01 15:09:55;;;;;;;1.52;1.23;;;;;;;9.67;100.00;99025.13;5072818;28;20094;-66
2023/04/01 15:12:44;;;;;;;0.85;0.75;;;;;;;9.70;100.00;99020.22;5056543;28;20044;-66
2023/04/01 15:15:33;;;;;;;2.40;1.20;;;;;;;9.65;100.00;99021.81;5072670;28;20037;-66
2023/04/01 15:18:08;;;;;;;7.93;2.47;;;;;;;9.70;100.00;99024.72;5072308;28;20037;-66
2023/04/01 15:20:49;;;;;;;2.55;1.60;;;;;;;9.74;100.00;99029.47;5072609;28;20070;-66
2023/04/01 15:23:36;;;;;;;2.78;1.30;;;;;;;9.73;100.00;99034.97;5072541;28;20029;-66
2023/04/01 15:26:19;;;;;;;4.15;0.98;;;;;;;9.75;100.00;99043.56;5072574;28;20046;-66
2023/04/01 15:29:21;;;;;;;3.67;1.25;;;;;;;9.72;100.00;99036.00;5072228;28;20044;-66
2023/04/01 15:32:02;;;;;;;2.72;1.13;;;;;;;9.72;100.00;99038.66;5072611;28;20119;-66
2023/04/01 15:34:47;;;;;;;1.65;1.00;;;;;;;9.77;100.00;99030.88;5072312;28;20036;-66
2023/04/01 15:38:01;;;;;;;3.92;1.05;;;;;;;9.79;100.00;99045.66;5071622;28;20039;-66
2023/04/01 15:40:35;;;;;;;1.83;0.90;;;;;;;9.87;100.00;99039.34;5061337;28;20131;-64
2023/04/01 15:43:37;;;;;;;4.43;1.30;;;;;;;9.83;100.00;99048.72;5070901;28;20405;-64
2023/04/01 15:46:10;;;;;;;1.98;1.10;;;;;;;9.83;100.00;99048.72;5070393;28;20452;-64
2023/04/01 15:48:38;;;;;;;1.80;1.17;;;;;;;9.84;100.00;99042.38;5070773;28;20101;-64
2023/04/01 15:51:19;;;;;;;1.73;0.88;;;;;;;9.78;100.00;99051.19;5072115;28;20043;-64
2023/04/01 15:53:50;;;;;;;3.40;1.52;;;;;;;9.71;100.00;99047.63;5072232;28;20028;-65
2023/04/01 15:56:16;;;;;;;1.25;1.10;;;;;;;9.75;100.00;99055.03;5071969;28;20040;-69
2023/04/01 15:58:59;;;;;;;2.17;1.30;;;;;;;9.74;100.00;99053.41;5071752;28;20028;-66
2023/04/01 16:01:47;;;;;;;4.85;1.65;;;;;;;9.69;100.00;99052.34;5071855;28;20039;-65
2023/04/01 16:04:53;;;;;;;2.03;0.82;;;;;;;9.64;100.00;99060.06;5072094;28;20043;-65
2023/04/01 16:07:40;;;;;;;2.50;1.13;;;;;;;9.64;100.00;99046.78;5071564;28;20037;-68
2023/04/01 16:10:51;;;;;;;1.08;0.90;;;;;;;9.62;100.00;99051.47;5071860;28;20051;-66
2023/04/01 16:13:19;;;;;;;2.33;0.88;;;;;;;9.67;100.00;99046.41;5058406;28;20573;-66
2023/04/01 16:15:57;;;;;;;2.45;1.10;;;;;;;9.63;100.00;99050.47;5071252;28;20040;-66
2023/04/01 16:18:24;;;;;;;3.47;0.98;;;;;;;9.58;100.00;99059.00;5071301;28;20039;-67
2023/04/01 16:21:14;;;;;;;1.02;0.90;;;;;;;9.58;100.00;99055.53;5070528;28;20393;-66
2023/04/01 16:23:50;;;;;;;3.03;1.27;;;;;;;9.56;100.00;99049.59;5071771;28;20029;-67
2023/04/01 16:26:26;;;;;;;2.38;0.93;;;;;;;9.65;100.00;99053.72;5071519;28;20466;-66
2023/04/01 16:29:02;;;;;;;2.08;1.05;;;;;;;9.60;100.00;99054.34;5071532;28;20129;-66
2023/04/01 16:31:46;;;;;;;2.67;1.23;;;;;;;9.64;100.00;99058.22;5071668;28;20028;-66
2023/04/01 16:34:20;;;;;;;2.38;1.00;;;;;;;9.60;100.00;99057.00;5071623;28;20032;-66
2023/04/01 16:37:00;;;;;;;3.20;1.35;;;;;;;9.62;100.00;99062.94;5071471;28;20040;-66
2023/04/01 16:40:22;;;;;;;1.23;1.00;;;;;;;9.70;100.00;99067.28;5071607;28;20032;-66
2023/04/01 16:43:06;;;;;;;2.13;1.10;;;;;;;9.68;100.00;99074.63;5009279;28;20041;-66
2023/04/01 16:45:43;;;;;;;2.83;1.20;;;;;;;9.65;100.00;99088.28;5008454;28;20038;-66
2023/04/01 16:48:09;;;;;;;7.65;1.60;;;;;;;9.68;100.00;99088.75;5058190;28;20076;-66
2023/04/01 16:51:06;;;;;;;3.28;1.10;;;;;;;9.65;100.00;99091.81;5070725;28;20075;-66
2023/04/01 16:53:43;;;;;;;;;;;;;;;9.60;100.00;99093.41;5070686;28;20055;-66
2023/04/01 16:56:16;;;;;;;4.53;1.58;;;;;;;9.57;100.00;99097.25;5071484;28;20010;-66
2023/04/01 16:58:57;;;;;;;3.70;1.13;;;;;;;9.55;100.00;99106.44;5071212;28;20040;-66
2023/04/01 17:01:37;;;;;;;1.30;1.10;;;;;;;9.50;100.00;99115.00;5071391;28;20448;-66
2023/04/01 17:04:47;;;;;;;5.25;1.23;;;;;;;9.57;100.00;99125.69;5071358;28;20048;-68
2023/04/01 17:07:22;;;;;;;1.02;0.93;;;;;;;9.48;100.00;99117.84;5063866;28;20048;-67
2023/04/01 17:10:16;;;;;;;4.05;1.30;;;;;;;9.41;100.00;99117.00;5071473;28;20090;-66
2023/04/01 17:13:06;;;;;;;7.57;1.52;;;;;;;9.42;100.00;99118.63;5071285;28;20083;-66
2023/04/01 17:15:39;;;;;;;2.25;1.00;;;;;;;9.40;100.00;99125.16;5071304;28;20497;-66
2023/04/01 17:18:34;;;;;;;1.85;1.00;;;;;;;9.34;100.00;99125.94;5071093;28;20060;-66